createdAt,value
2019-02-18T00:06:01.407Z,2.1
2019-02-18T00:11:01.295Z,2.1
2019-02-18T00:21:01.413Z,2.1
2019-02-18T00:26:01.353Z,2.1
2019-02-18T00:31:01.289Z,2.2
2019-02-18T00:36:01.444Z,2.2
2019-02-18T00:41:01.301Z,2.2
2019-02-18T00:51:01.338Z,2.0
2019-02-18T01:01:01.382Z,1.9
2019-02-18T01:06:01.367Z,2.0
2019-02-18T01:11:01.332Z,2.0
2019-02-18T01:16:01.417Z,2.1
2019-02-18T01:21:01.328Z,2.2
2019-02-18T01:26:01.382Z,2.2
2019-02-18T01:31:01.293Z,2.2
2019-02-18T01:41:01.402Z,2.1
2019-02-18T01:51:01.367Z,2.1
2019-02-18T02:06:01.353Z,2.1
2019-02-18T02:11:01.287Z,2.1
2019-02-18T02:16:01.411Z,2.0
2019-02-18T02:21:01.291Z,2.3
2019-02-18T02:31:01.803Z,2.0
2019-02-18T02:46:01.354Z,1.9
2019-02-18T02:51:01.317Z,1.9
2019-02-18T03:01:01.448Z,1.9
2019-02-18T03:11:01.422Z,2.1
2019-02-18T03:16:01.372Z,2.1
2019-02-18T03:21:01.312Z,2.1
2019-02-18T03:36:01.356Z,2.0
2019-02-18T03:41:03.741Z,2.0
2019-02-18T03:46:01.362Z,2.0
2019-02-18T03:51:01.335Z,2.0
2019-02-18T03:56:01.403Z,2.0
2019-02-18T04:06:01.405Z,2.0
2019-02-18T04:16:01.394Z,2.0
2019-02-18T04:21:01.302Z,1.9
2019-02-18T04:26:01.549Z,2.0
2019-02-18T04:36:01.432Z,1.9
2019-02-18T04:41:01.303Z,2.0
2019-02-18T04:56:01.385Z,2.0
2019-02-18T05:11:01.364Z,2.0
2019-02-18T05:16:01.420Z,2.0
2019-02-18T05:31:01.305Z,2.0
2019-02-18T05:46:01.407Z,2.0
2019-02-18T05:56:06.459Z,2.1
2019-02-18T06:01:06.289Z,2.0
2019-02-18T06:16:01.424Z,1.9
2019-02-18T06:26:06.374Z,2.0
2019-02-18T06:41:06.357Z,2.0
2019-02-18T06:46:01.351Z,2.0
2019-02-18T06:56:01.492Z,2.1
2019-02-18T07:11:01.412Z,2.1
2019-02-18T07:16:01.360Z,2.1
2019-02-18T07:26:01.295Z,2.0
2019-02-18T07:41:01.342Z,2.1
2019-02-18T07:46:01.347Z,2.1
2019-02-18T08:01:01.362Z,2.1
2019-02-18T08:16:01.356Z,2.0
2019-02-18T08:31:01.292Z,2.1
2019-02-18T08:36:01.418Z,2.7
2019-02-18T08:41:01.281Z,2.7
2019-02-18T08:46:01.402Z,3.9
2019-02-18T08:51:01.283Z,3.8
2019-02-18T08:56:01.479Z,6.1
2019-02-18T09:01:03.161Z,6.1
2019-02-18T09:06:01.460Z,5.8
2019-02-18T09:11:01.301Z,5.8
2019-02-18T09:16:01.360Z,6.8
2019-02-18T09:21:01.300Z,6.8
2019-02-18T09:26:01.359Z,7.5
2019-02-18T09:31:01.342Z,7.6
2019-02-18T09:36:01.296Z,11.0
2019-02-18T09:41:01.313Z,10.9
2019-02-18T09:46:01.421Z,10.6
2019-02-18T09:51:01.297Z,10.6
2019-02-18T09:56:01.430Z,11.0
2019-02-18T10:01:01.291Z,11.0
2019-02-18T10:06:01.356Z,11.2
2019-02-18T10:11:01.296Z,11.3
2019-02-18T10:16:01.434Z,12.9
2019-02-18T10:21:01.301Z,13.0
2019-02-18T10:26:01.372Z,12.4
2019-02-18T10:31:01.292Z,12.5
2019-02-18T10:36:01.522Z,13.6
2019-02-18T10:41:07.403Z,13.7
2019-02-18T10:46:01.456Z,14.8
2019-02-18T10:51:01.297Z,14.7
2019-02-18T11:01:01.305Z,14.0
2019-02-18T11:06:01.366Z,13.9
2019-02-18T11:11:01.392Z,13.9
2019-02-18T11:16:01.434Z,14.5
2019-02-18T11:21:01.544Z,14.5
2019-02-18T11:26:01.300Z,13.9
2019-02-18T11:31:01.326Z,13.6
2019-02-18T11:36:01.352Z,14.0
2019-02-18T11:41:01.343Z,13.9
2019-02-18T11:46:01.362Z,15.3
2019-02-18T11:51:01.301Z,15.4
2019-02-18T11:56:02.003Z,16.2
2019-02-18T12:01:01.691Z,16.4
2019-02-18T12:06:01.383Z,16.5
2019-02-18T12:11:01.305Z,17.9
2019-02-18T12:16:01.732Z,17.7
2019-02-18T12:21:01.276Z,19.4
2019-02-18T12:26:01.360Z,19.2
2019-02-18T12:31:01.617Z,18.7
2019-02-18T12:36:01.427Z,18.4
2019-02-18T12:41:01.328Z,20.1
2019-02-18T12:46:01.362Z,20.4
2019-02-18T12:51:03.456Z,20.2
2019-02-18T12:56:01.437Z,20.6
2019-02-18T13:01:01.369Z,22.4
2019-02-18T13:06:01.491Z,22.4
2019-02-18T13:11:01.373Z,21.7
2019-02-18T13:16:01.738Z,21.8
2019-02-18T13:21:01.434Z,22.5
2019-02-18T13:26:01.403Z,21.9
2019-02-18T13:31:01.739Z,21.6
2019-02-18T13:36:01.356Z,21.0
2019-02-18T13:41:01.293Z,21.1
2019-02-18T13:46:01.725Z,20.9
2019-02-18T13:51:01.336Z,20.7
2019-02-18T13:56:01.462Z,20.2
2019-02-18T14:06:01.467Z,20.2
2019-02-18T14:11:01.340Z,19.8
2019-02-18T14:16:01.386Z,19.7
2019-02-18T14:21:01.371Z,19.3
2019-02-18T14:26:01.380Z,19.3
2019-02-18T14:31:01.294Z,18.9
2019-02-18T14:36:01.359Z,18.6
2019-02-18T14:41:01.297Z,17.7
2019-02-18T14:46:01.297Z,16.8
2019-02-18T14:51:01.361Z,15.6
2019-02-18T14:56:01.672Z,15.6
2019-02-18T15:01:01.354Z,15.2
2019-02-18T15:06:01.306Z,15.4
2019-02-18T15:11:01.478Z,15.9
2019-02-18T15:16:01.514Z,16.5
2019-02-18T15:21:01.315Z,16.0
2019-02-18T15:26:01.473Z,15.9
2019-02-18T15:36:01.408Z,15.6
2019-02-18T15:41:01.284Z,14.7
2019-02-18T15:46:01.345Z,14.9
2019-02-18T15:51:01.284Z,14.1
2019-02-18T16:01:06.447Z,12.3
2019-02-18T16:06:06.611Z,12.6
2019-02-18T16:11:01.322Z,11.5
2019-02-18T16:16:01.747Z,11.5
2019-02-18T16:21:01.701Z,10.2
2019-02-18T16:26:01.357Z,10.1
2019-02-18T16:31:01.369Z,9.2
2019-02-18T16:41:01.671Z,9.2
2019-02-18T16:51:01.294Z,9.0
2019-02-18T17:01:01.469Z,7.8
2019-02-18T17:06:01.426Z,7.9
2019-02-18T17:11:01.293Z,6.1
2019-02-18T17:16:01.395Z,6.7
2019-02-18T17:21:01.350Z,6.2
2019-02-18T17:26:01.430Z,6.4
2019-02-18T17:31:01.606Z,5.5
2019-02-18T17:36:02.605Z,5.4
2019-02-18T17:41:01.745Z,5.6
2019-02-18T17:46:01.788Z,5.7
2019-02-18T17:51:01.321Z,5.3
2019-02-18T17:56:01.411Z,5.3
2019-02-18T18:01:01.276Z,3.9
2019-02-18T18:06:01.454Z,3.9
2019-02-18T18:11:01.283Z,3.8
2019-02-18T18:16:01.303Z,3.9
2019-02-18T18:26:01.446Z,5.7
2019-02-18T18:31:01.330Z,5.9
2019-02-18T18:36:01.353Z,5.9
2019-02-18T18:41:01.309Z,4.5
2019-02-18T18:46:01.441Z,4.5
2019-02-18T18:51:01.288Z,3.4
2019-02-18T18:56:06.485Z,3.5
2019-02-18T19:01:01.315Z,1.8
2019-02-18T19:06:01.349Z,1.8
2019-02-18T19:11:01.306Z,1.8
2019-02-18T19:16:01.283Z,1.9
2019-02-18T19:21:01.327Z,1.9
2019-02-18T19:26:01.403Z,1.9
2019-02-18T19:31:01.318Z,1.8
2019-02-18T19:46:01.309Z,1.8
2019-02-18T19:51:01.294Z,1.9
2019-02-18T19:56:01.357Z,1.9
2019-02-18T20:01:01.298Z,2.0
2019-02-18T20:11:01.354Z,2.0
2019-02-18T20:26:01.349Z,2.1
2019-02-18T20:36:01.306Z,2.0
2019-02-18T20:51:01.419Z,2.0
2019-02-18T21:06:01.354Z,2.1
2019-02-18T21:11:01.310Z,2.1
2019-02-18T21:16:01.288Z,2.1
2019-02-18T21:21:01.286Z,2.1
2019-02-18T21:31:01.427Z,2.1
2019-02-18T21:46:01.415Z,2.1
2019-02-18T21:51:01.372Z,2.1
2019-02-18T21:56:01.355Z,2.1
2019-02-18T22:06:01.350Z,2.1
2019-02-18T22:21:01.360Z,2.0
2019-02-18T22:26:02.302Z,2.0
2019-02-18T22:41:01.455Z,2.1
2019-02-18T22:56:01.432Z,2.0
2019-02-18T23:01:01.297Z,2.0
2019-02-18T23:06:01.295Z,2.1
2019-02-18T23:21:01.356Z,2.2
2019-02-18T23:36:02.305Z,2.1
2019-02-18T23:47:01.342Z,2.2
2019-02-18T23:57:01.454Z,2.3
